Quinnipiac River @ Wallingford, Ct

Quinnipiac River at Wallingford
 Total Drainage Area: 115 sq. miles 
 Drainage Area Controlled by Corps Dams: 0 sq. miles (0%) 
 Warning Flow/Stage: 1,750 cfs / 9.0 feet 
 Flood Flow/Stage: 2,420 cfs / 10.0 feet 
Date Time
(Eastern)
Stage
(ft)
Flow
(cfs)
CSM
(cfs / sq. mi.)
Jun-16 08:00 pm 3.10 110 1.0
Jun-16 07:00 pm 3.10 110 1.0
Jun-16 06:00 pm 3.11 111 1.0
Jun-16 05:00 pm 3.12 113 1.0
Jun-16 04:00 pm 3.18 120 1.1
Jun-16 03:00 pm 3.32 140 1.2
Jun-16 02:00 pm 3.48 169 1.5
Jun-16 01:00 pm 3.43 160 1.4
Jun-16 12:00 pm 2.94 91 .8
Jun-16 11:00 am 2.83 79 .7
Jun-16 10:00 am 2.76 72 .6
Jun-16 09:00 am 2.74 70 .6
Jun-16 08:00 am 2.81 77 .7
Jun-16 07:00 am 2.95 92 .8
Jun-16 06:00 am 3.09 109 1.0
Jun-16 05:00 am 3.13 114 1.0
Jun-16 04:00 am 3.15 117 1.0
Jun-16 03:00 am 3.16 118 1.0
Jun-16 02:00 am 3.16 118 1.0
Jun-16 01:00 am 3.18 120 1.1
Jun-16 12:00 am 3.22 126 1.1
Jun-15 11:00 pm 3.30 137 1.2
Jun-15 10:00 pm 3.42 158 1.4
Jun-15 09:00 pm 3.57 184 1.6
Jun-15 08:00 pm 3.57 184 1.6
Report Generated June 16, 2024 08:45 pm